Time;durP1;ratioP1;P1;durP2;ratioP2;P2;SDS_P1;SDS_P2;PMS_P1;PMS_P2;Temp;Humidity;BMP_temperature;BMP_pressure;BME280_temperature;BME280_humidity;BME280_pressure;Samples;Min_cycle;Max_cycle;Signal;HPM_P1;HPM_P2
2024/02/03 00:05:01;;;;;;;;;;;;;;;4.87;100.00;99114.31;269952;1270;23682;-89
2024/02/03 00:11:10;;;;;;;;;;;;;;;5.01;100.00;99104.88;271436;1270;22520;-91
2024/02/03 00:17:16;;;;;;;;;;;;;;;5.11;100.00;99106.46;272466;1270;22548;-92
2024/02/03 00:23:28;;;;;;;;;;;;;;;5.20;100.00;99104.67;271732;1270;23586;-91
2024/02/03 00:29:36;;;;;;;;;;;;;;;5.29;100.00;99099.17;271872;1270;22515;-92
2024/02/03 00:35:41;;;;;;;;;;;;;;;5.36;100.00;99105.61;271366;1269;22546;-90
2024/02/03 00:41:43;;;;;;;;;;;;;;;5.43;100.00;99107.30;270388;1269;22533;-91
2024/02/03 00:47:53;;;;;;;;;;;;;;;5.50;100.00;99101.33;271658;1269;22626;-91
2024/02/03 00:54:04;;;;;;;;;;;;;;;5.54;100.00;99104.03;272022;1269;22507;-93
2024/02/03 01:00:09;;;;;;;;;;;;;;;5.56;100.00;99115.41;271097;1269;22486;-91
2024/02/03 01:06:16;;;;;;;;;;;;;;;5.58;100.00;99113.54;272617;1269;23798;-91
2024/02/03 01:12:35;;;;;;;;;;;;;;;5.60;100.00;99113.70;270476;1269;23232;-91
2024/02/03 01:18:45;;;;;;;;;;;;;;;5.57;100.00;99119.36;271314;1269;22562;-91
2024/02/03 01:24:57;;;;;;;;;;;;;;;;;;;;;
2024/02/03 01:31:04;;;;;;;;;;;;;;;5.52;100.00;99110.89;270284;1269;23587;-90
2024/02/03 01:37:19;;;;;;;;;;;;;;;5.48;100.00;99103.91;271590;1269;22547;-92
2024/02/03 01:43:23;;;;;;;;;;;;;;;5.45;100.00;99111.40;269911;1269;22536;-92
2024/02/03 01:49:31;;;;;;;;;;;;;;;5.46;100.00;99107.18;270398;1269;22531;-91
2024/02/03 01:55:38;;;;;;;;;;;;;;;5.45;100.00;99094.20;269161;1269;23716;-91
2024/02/03 02:01:46;;;;;;;;;;;;;;;5.47;100.00;99084.89;270066;1269;22539;-90
2024/02/03 02:07:51;;;;;;;;;;;;;;;5.47;100.00;99076.28;269859;1269;22605;-89
2024/02/03 02:13:53;;;;;;;;;;;;;;;5.46;100.00;99073.76;269682;1269;23783;-92
2024/02/03 02:20:08;;;;;;;;;;;;;;;5.47;100.00;99065.48;269088;1269;22516;-91
2024/02/03 02:26:12;;;;;;;;;;;;;;;5.49;100.00;99050.59;270427;1269;22610;-91
2024/02/03 02:32:18;;;;;;;;;;;;;;;5.53;100.00;99045.42;270172;1261;106417;-88
2024/02/03 02:38:32;;;;;;;;;;;;;;;5.59;100.00;99035.77;269792;1269;23371;-90
2024/02/03 02:44:35;;;;;;;;;;;;;;;5.68;100.00;99035.59;269779;1269;22514;-91
2024/02/03 02:50:40;;;;;;;;;;;;;;;5.75;100.00;99033.00;269766;1269;25252;-90
2024/02/03 02:56:56;;;;;;;;;;;;;;;5.83;100.00;99030.17;269649;1268;25341;-91
2024/02/03 03:03:00;;;;;;;;;;;;;;;5.92;100.00;99020.74;269480;1269;22636;-90
2024/02/03 03:09:06;;;;;;;;;;;;;;;5.97;100.00;99023.15;269758;1269;23557;-91
2024/02/03 03:15:09;;;;;;;;;;;;;;;6.01;100.00;99026.20;269548;1269;24275;-91
2024/02/03 03:21:12;;;;;;;;;;;;;;;6.08;100.00;99041.80;269833;1269;22502;-91
2024/02/03 03:27:15;;;;;;;;;;;;;;;6.10;100.00;99052.43;269385;1269;23969;-90
2024/02/03 03:33:20;;;;;;;;;;;;;;;6.16;100.00;99058.27;269538;1269;22620;-90
2024/02/03 03:39:23;;;;;;;;;;;;;;;6.24;100.00;99061.36;269492;1269;25565;-90
2024/02/03 03:45:35;;;;;;;;;;;;;;;6.28;100.00;99059.63;270222;1269;23007;-90
2024/02/03 03:51:37;;;;;;;;;;;;;;;6.28;100.00;99055.98;270045;1268;22661;-91
2024/02/03 03:57:58;;;;;;;;;;;;;;;6.32;100.00;99055.15;269933;1269;23766;-91
2024/02/03 04:04:19;;;;;;;;;;;;;;;6.36;100.00;99059.39;269600;1269;22507;-90
2024/02/03 04:10:21;;;;;;;;;;;;;;;6.37;100.00;99060.34;269405;1269;22634;-89
2024/02/03 04:16:25;;;;;;;;;;;;;;;6.38;100.00;99058.36;269060;1269;22517;-90
2024/02/03 04:22:28;;;;;;;;;;;;;;;6.43;100.00;99062.84;269649;1269;22536;-89
2024/02/03 04:28:29;;;;;;;;;;;;;;;6.46;100.00;99064.10;269636;1269;22516;-90
2024/02/03 04:34:38;;;;;;;;;;;;;;;6.47;100.00;99069.23;270032;1269;22521;-90
2024/02/03 04:40:45;;;;;;;;;;;;;;;6.47;100.00;99073.45;269603;1269;23213;-90
2024/02/03 04:46:50;;;;;;;;;;;;;;;6.48;100.00;99071.84;269709;1269;22551;-90
2024/02/03 04:52:52;;;;;;;;;;;;;;;6.52;100.00;99072.95;270103;1262;22539;-91
2024/02/03 04:58:56;;;;;;;;;;;;;;;6.57;100.00;99081.25;269631;1269;989505;-90
2024/02/03 05:05:10;;;;;;;;;;;;;;;6.58;100.00;99086.97;270153;1269;24308;-90
2024/02/03 05:11:19;;;;;;;;;;;;;;;6.57;100.00;99085.61;269204;1269;22472;-91
2024/02/03 05:17:24;;;;;;;;;;;;;;;6.59;100.00;99078.91;269693;1269;22584;-91
2024/02/03 05:23:26;;;;;;;;;;;;;;;6.60;100.00;99072.81;269526;1269;22532;-91
2024/02/03 05:29:32;;;;;;;;;;;;;;;6.58;100.00;99073.14;269704;1269;23756;-92
2024/02/03 05:35:35;;;;;;;;;;;;;;;6.57;100.00;99068.05;269649;1268;23203;-92
2024/02/03 05:42:06;;;;;;;;;;;;;;;6.55;100.00;99076.87;270068;1268;25335;-90
2024/02/03 05:48:08;;;;;;;;;;;;;;;6.56;100.00;99073.48;270428;1269;22529;-90
2024/02/03 05:54:10;;;;;;;;;;;;;;;6.58;100.00;99069.48;270078;1259;22551;-92
2024/02/03 06:00:14;;;;;;;;;;;;;;;6.63;100.00;99072.03;270008;1268;22774;-91
2024/02/03 06:06:16;;;;;;;;;;;;;;;6.67;100.00;99069.66;270316;1267;22508;-90
2024/02/03 06:12:21;;;;;;;;;;;;;;;6.73;100.00;99085.98;269952;1268;25422;-90
2024/02/03 06:18:25;;;;;;;;;;;;;;;6.78;100.00;99091.57;270139;1268;22556;-91
2024/02/03 06:24:28;;;;;;;;;;;;;;;6.84;100.00;99098.89;270807;1269;22545;-91
2024/02/03 06:30:33;;;;;;;;;;;;;;;6.85;100.00;99089.96;270541;1268;22532;-91
2024/02/03 06:36:37;;;;;;;;;;;;;;;6.88;100.00;99095.20;269599;1268;25357;-90
2024/02/03 06:42:49;;;;;;;;;;;;;;;6.91;100.00;99097.45;270171;1269;22537;-91
2024/02/03 06:48:51;;;;;;;;;;;;;;;6.95;100.00;99093.60;270556;1265;24369;-91
2024/02/03 06:54:54;;;;;;;;;;;;;;;6.99;100.00;99099.77;270674;1259;22531;-90
2024/02/03 07:00:56;;;;;;;;;;;;;;;6.98;100.00;99105.57;271342;1266;22524;-91
2024/02/03 07:06:58;;;;;;;;;;;;;;;7.02;100.00;99108.54;271191;1269;22531;-92
2024/02/03 07:13:01;;;;;;;;;;;;;;;7.07;100.00;99116.14;271072;1268;22531;-91
2024/02/03 07:19:04;;;;;;;;;;;;;;;7.10;100.00;99121.59;270226;1268;23042;-91
2024/02/03 07:25:07;;;;;;;;;;;;;;;7.16;100.00;99129.55;269933;1268;22686;-90
2024/02/03 07:31:09;;;;;;;;;;;;;;;7.20;100.00;99125.63;269930;1269;22485;-90
2024/02/03 07:37:12;;;;;;;;;;;;;;;7.26;100.00;99120.63;269972;1268;22614;-91
2024/02/03 07:43:17;;;;;;;;;;;;;;;7.30;100.00;99115.75;270363;1268;23369;-92
2024/02/03 07:49:20;;;;;;;;;;;;;;;7.32;100.00;99112.16;270756;1269;25403;-90
2024/02/03 07:56:02;;;;;;;;;;;;;;;;;;;;;
2024/02/03 08:02:59;;;;;;;;;;;;;;;7.44;100.00;99113.17;270545;1269;23696;-91
2024/02/03 08:09:01;;;;;;;;;;;;;;;7.51;100.00;99108.03;269935;1269;22543;-90
2024/02/03 08:15:04;;;;;;;;;;;;;;;7.61;100.00;99104.94;270865;1260;22504;-90
2024/02/03 08:21:06;;;;;;;;;;;;;;;7.68;100.00;99099.05;269909;1268;22522;-90
2024/02/03 08:27:08;;;;;;;;;;;;;;;7.76;100.00;99099.61;269741;1269;22607;-90
2024/02/03 08:33:14;;;;;;;;;;;;;;;7.82;100.00;99096.25;270067;1269;22724;-90
2024/02/03 08:39:15;;;;;;;;;;;;;;;7.88;100.00;99094.77;269962;1269;23370;-90
2024/02/03 08:45:18;;;;;;;;;;;;;;;7.87;100.00;99097.56;269900;1269;22533;-88
2024/02/03 08:51:20;;;;;;;;;;;;;;;7.86;100.00;99104.46;270061;1269;22573;-89
2024/02/03 08:57:22;;;;;;;;;;;;;;;7.87;100.00;99116.94;270394;1269;23270;-89
2024/02/03 09:03:25;;;;;;;;;;;;;;;7.88;100.00;99108.77;270063;1269;22668;-89
2024/02/03 09:09:27;;;;;;;;;;;;;;;7.91;100.00;99110.48;269545;1269;25331;-89
2024/02/03 09:15:31;;;;;;;;;;;;;;;7.93;100.00;99108.58;270322;1269;22527;-90
2024/02/03 09:21:36;;;;;;;;;;;;;;;7.96;100.00;99099.64;270647;1269;22569;-89
2024/02/03 09:27:39;;;;;;;;;;;;;;;8.05;100.00;99095.23;270658;1268;23720;-89
2024/02/03 09:33:41;;;;;;;;;;;;;;;8.18;100.00;99095.05;270326;1269;22517;-90
2024/02/03 09:39:44;;;;;;;;;;;;;;;8.30;100.00;99090.98;269953;1269;22630;-91
2024/02/03 09:45:46;;;;;;;;;;;;;;;8.36;100.00;99099.38;270050;1269;23347;-90
2024/02/03 09:51:59;;;;;;;;;;;;;;;8.35;100.00;99105.13;269908;1268;22539;-90
2024/02/03 09:58:04;;;;;;;;;;;;;;;8.33;100.00;99111.78;270032;1269;22551;-91
2024/02/03 10:04:05;;;;;;;;;;;;;;;8.32;100.00;99102.71;270051;1269;22534;-91
2024/02/03 10:10:08;;;;;;;;;;;;;;;8.31;100.00;99091.78;269573;1263;22534;-90
2024/02/03 10:16:12;;;;;;;;;;;;;;;8.38;100.00;99078.39;270118;1269;23321;-91
2024/02/03 10:22:16;;;;;;;;;;;;;;;8.49;100.00;99083.13;270083;1269;22528;-90
2024/02/03 10:28:18;;;;;;;;;;;;;;;8.63;100.00;99071.40;269707;1268;23674;-90
2024/02/03 10:34:24;;;;;;;;;;;;;;;8.83;100.00;99072.41;270231;1269;22657;-90
2024/02/03 10:40:46;;;;;;;;;;;;;;;9.00;99.95;99069.16;270402;1269;22517;-91
2024/02/03 10:46:51;;;;;;;;;;;;;;;9.06;99.97;99073.33;269864;1269;22525;-90
2024/02/03 10:52:56;;;;;;;;;;;;;;;9.07;99.69;99068.35;269845;1269;22588;-91
2024/02/03 10:58:58;;;;;;;;;;;;;;;9.11;99.55;99068.73;270029;1267;23671;-91
2024/02/03 11:05:01;;;;;;;;;;;;;;;9.16;99.61;99063.37;270271;1269;22584;-90
2024/02/03 11:11:03;;;;;;;;;;;;;;;9.25;98.94;99069.23;270362;1269;22942;-91
2024/02/03 11:17:05;;;;;;;;;;;;;;;9.39;99.47;99067.97;270379;1268;24654;-91
2024/02/03 11:23:14;;;;;;;;;;;;;;;9.47;99.29;99066.62;270609;1269;22634;-91
2024/02/03 11:29:17;;;;;;;;;;;;;;;9.44;99.10;99058.38;270915;1269;22527;-91
2024/02/03 11:35:21;;;;;;;;;;;;;;;9.45;99.25;99058.55;270673;1256;22524;-90
2024/02/03 11:41:31;;;;;;;;;;;;;;;9.46;99.13;99054.19;270105;1266;24250;-90
2024/02/03 11:47:33;;;;;;;;;;;;;;;9.44;99.33;99049.95;270387;1269;22789;-91
2024/02/03 11:53:36;;;;;;;;;;;;;;;9.39;99.26;99043.15;269991;1269;22519;-91
2024/02/03 11:59:38;;;;;;;;;;;;;;;9.27;99.48;99034.52;270169;1268;22637;-90
2024/02/03 12:05:41;;;;;;;;;;;;;;;9.14;99.94;99046.30;270343;1269;22576;-92
2024/02/03 12:11:51;;;;;;;;;;;;;;;9.09;99.99;99051.98;270201;1269;22621;-89
2024/02/03 12:17:58;;;;;;;;;;;;;;;9.07;100.00;99053.22;270593;1269;22654;-90
2024/02/03 12:24:01;;;;;;;;;;;;;;;9.09;100.00;99045.29;270660;1269;23529;-91
2024/02/03 12:30:04;;;;;;;;;;;;;;;9.19;100.00;99055.14;269875;1269;22795;-89
2024/02/03 12:36:10;;;;;;;;;;;;;;;9.32;100.00;99062.61;269814;1269;22538;-89
2024/02/03 12:42:12;;;;;;;;;;;;;;;9.37;100.00;99072.40;270395;1269;22902;-90
2024/02/03 12:48:24;;;;;;;;;;;;;;;9.28;100.00;99078.18;270556;1269;22504;-90
2024/02/03 12:54:27;;;;;;;;;;;;;;;9.16;100.00;99082.63;270100;1269;22607;-91
2024/02/03 13:00:30;;;;;;;;;;;;;;;9.10;100.00;99083.46;270332;1269;22660;-91
2024/02/03 13:06:36;;;;;;;;;;;;;;;9.07;100.00;99084.89;270405;1269;25300;-91
2024/02/03 13:12:42;;;;;;;;;;;;;;;9.12;100.00;99074.21;270252;1269;24585;-90
2024/02/03 13:18:44;;;;;;;;;;;;;;;9.23;100.00;99077.20;270237;1269;22610;-90
2024/02/03 13:24:47;;;;;;;;;;;;;;;9.31;100.00;99074.94;270118;1269;22528;-91
2024/02/03 13:31:15;;;;;;;;;;;;;;;9.33;100.00;99072.78;270270;1268;22525;-91
2024/02/03 13:37:19;;;;;;;;;;;;;;;9.22;100.00;99067.84;270319;1269;26516;-93
2024/02/03 13:43:25;;;;;;;;;;;;;;;9.11;100.00;99075.90;269957;1269;22532;-91
2024/02/03 13:49:26;;;;;;;;;;;;;;;9.03;100.00;99080.69;270019;1269;22605;-90
2024/02/03 13:55:30;;;;;;;;;;;;;;;8.99;100.00;99075.77;270059;1269;22543;-91
2024/02/03 14:01:34;;;;;;;;;;;;;;;8.96;100.00;99078.98;270158;1269;23806;-90
2024/02/03 14:07:36;;;;;;;;;;;;;;;8.93;100.00;99078.46;269953;1269;22542;-90
2024/02/03 14:13:43;;;;;;;;;;;;;;;8.93;100.00;99074.48;269943;1265;22548;-91
2024/02/03 14:19:47;;;;;;;;;;;;;;;8.97;100.00;99067.45;270052;1269;22559;-90
2024/02/03 14:25:49;;;;;;;;;;;;;;;8.99;100.00;99071.71;269999;1269;23640;-92
2024/02/03 14:31:51;;;;;;;;;;;;;;;8.99;100.00;99068.59;269912;1269;22526;-92
2024/02/03 14:37:54;;;;;;;;;;;;;;;8.98;100.00;99069.73;269915;1269;22625;-90
2024/02/03 14:43:56;;;;;;;;;;;;;;;8.95;100.00;99073.66;270046;1269;22972;-90
2024/02/03 14:50:00;;;;;;;;;;;;;;;8.89;100.00;99068.41;269681;1269;22598;-90
2024/02/03 14:56:02;;;;;;;;;;;;;;;8.89;100.00;99063.02;269637;1269;23741;-90
2024/02/03 15:02:04;;;;;;;;;;;;;;;8.92;100.00;99065.98;269860;1269;22542;-91
2024/02/03 15:08:07;;;;;;;;;;;;;;;8.94;100.00;99061.23;269810;1270;22496;-90
2024/02/03 15:14:09;;;;;;;;;;;;;;;8.92;100.00;99061.92;269881;1269;25291;-91
2024/02/03 15:20:12;;;;;;;;;;;;;;;8.89;100.00;99068.48;269947;1269;22515;-90
2024/02/03 15:26:14;;;;;;;;;;;;;;;8.84;100.00;99072.90;269810;1269;25315;-88
2024/02/03 15:32:19;;;;;;;;;;;;;;;8.80;100.00;99076.65;269688;1269;22622;-91
2024/02/03 15:38:21;;;;;;;;;;;;;;;8.79;100.00;99081.70;270084;1269;23722;-90
2024/02/03 15:44:26;;;;;;;;;;;;;;;8.79;100.00;99080.70;269774;1269;23459;-91
2024/02/03 15:50:30;;;;;;;;;;;;;;;8.78;100.00;99093.21;269623;1269;25419;-91
2024/02/03 15:56:36;;;;;;;;;;;;;;;8.70;100.00;99110.60;269855;1269;22504;-92
2024/02/03 16:02:39;;;;;;;;;;;;;;;8.56;100.00;99130.04;269862;1269;22557;-91
2024/02/03 16:08:44;;;;;;;;;;;;;;;8.30;100.00;99142.65;270339;1269;22565;-91
2024/02/03 16:14:48;;;;;;;;;;;;;;;8.07;100.00;99145.90;270095;1269;23695;-91
2024/02/03 16:20:54;;;;;;;;;;;;;;;7.89;100.00;99154.60;270137;1269;22658;-91
2024/02/03 16:26:59;;;;;;;;;;;;;;;7.78;100.00;99158.68;270068;1269;22520;-91
2024/02/03 16:33:07;;;;;;;;;;;;;;;7.69;100.00;99146.16;270122;1269;22560;-89
2024/02/03 16:39:09;;;;;;;;;;;;;;;7.61;100.00;99141.30;270074;1268;22542;-91
2024/02/03 16:45:12;;;;;;;;;;;;;;;7.55;100.00;99130.80;270040;1269;22552;-88
2024/02/03 16:51:16;;;;;;;;;;;;;;;7.50;100.00;99119.37;269922;1269;22565;-90
2024/02/03 16:57:22;;;;;;;;;;;;;;;7.42;100.00;99113.98;255121;1269;20003057;-91
2024/02/03 17:03:28;;;;;;;;;;;;;;;7.37;100.00;99109.63;270856;1269;22507;-90
2024/02/03 17:09:35;;;;;;;;;;;;;;;7.32;100.00;99111.05;270831;1270;22537;-91
2024/02/03 17:15:38;;;;;;;;;;;;;;;7.32;100.00;99113.38;270488;1269;24423;-92
2024/02/03 17:21:42;;;;;;;;;;;;;;;7.37;100.00;99108.77;271453;1267;22525;-90
2024/02/03 17:28:09;;;;;;;;;;;;;;;7.43;100.00;99103.34;271331;1269;22520;-91
2024/02/03 17:34:11;;;;;;;;;;;;;;;7.48;100.00;99102.60;270953;1269;24891;-90
2024/02/03 17:40:19;;;;;;;;;;;;;;;7.49;100.00;99112.73;270831;1270;22547;-91
2024/02/03 17:46:23;;;;;;;;;;;;;;;7.47;100.00;99119.01;270911;1269;22556;-90
2024/02/03 17:52:28;;;;;;;;;;;;;;;7.46;100.00;99123.33;270800;1269;24266;-90
2024/02/03 17:58:33;;;;;;;;;;;;;;;7.42;100.00;99120.03;270907;1260;22602;-91
2024/02/03 18:04:42;;;;;;;;;;;;;;;7.41;100.00;99116.56;270973;1269;22516;-93
2024/02/03 18:10:47;;;;;;;;;;;;;;;7.41;100.00;99115.34;270854;1269;22552;-90
2024/02/03 18:16:59;;;;;;;;;;;;;;;7.43;100.00;99115.30;270823;1269;22561;-90
2024/02/03 18:23:02;;;;;;;;;;;;;;;7.46;100.00;99112.12;270942;1269;22539;-91
2024/02/03 18:29:07;;;;;;;;;;;;;;;7.49;100.00;99103.23;270776;1269;22640;-90
2024/02/03 18:35:13;;;;;;;;;;;;;;;7.50;100.00;99094.77;271032;1269;22552;-92
2024/02/03 18:41:18;;;;;;;;;;;;;;;7.51;100.00;99089.11;270821;1269;22525;-89
2024/02/03 18:47:25;;;;;;;;;;;;;;;7.51;100.00;99088.18;273010;1270;22426;-92
2024/02/03 19:00:20;;;;;;;;;;;;;;;7.57;100.00;99106.09;264104;1301;544666;-90
2024/02/03 19:06:25;;;;;;;;;;;;;;;7.55;100.00;99101.98;269031;1279;22544;-89
2024/02/03 19:12:27;;;;;;;;;;;;;;;7.58;100.00;99100.83;268517;1276;1007126;-90
2024/02/03 19:18:29;;;;;;;;;;;;;;;7.63;100.00;99103.06;269514;1276;22525;-90
2024/02/03 19:24:32;;;;;;;;;;;;;;;7.66;100.00;99094.38;271435;1266;23730;-90
2024/02/03 19:30:34;;;;;;;;;;;;;;;7.70;100.00;99089.67;271320;1266;23828;-90
2024/02/03 19:36:36;;;;;;;;;;;;;;;7.70;100.00;99085.09;272165;1266;23752;-90
2024/02/03 19:42:41;;;;;;;;;;;;;;;7.70;100.00;99094.52;272096;1267;22592;-91
2024/02/03 19:48:43;;;;;;;;;;;;;;;7.76;100.00;99104.54;271903;1266;23089;-89
2024/02/03 19:54:44;;;;;;;;;;;;;;;7.83;100.00;99109.22;271581;1267;22521;-90
2024/02/03 20:00:47;;;;;;;;;;;;;;;7.84;100.00;99110.48;271650;1265;22512;-91
2024/02/03 20:06:53;;;;;;;;;;;;;;;7.80;100.00;99106.50;271626;1266;22642;-90
2024/02/03 20:13:00;;;;;;;;;;;;;;;7.78;100.00;99101.75;271092;1266;22521;-91
2024/02/03 20:19:03;;;;;;;;;;;;;;;7.78;100.00;99100.98;273481;1266;22440;-90
2024/02/03 20:25:06;;;;;;;;;;;;;;;7.74;100.00;99106.73;273452;1266;23708;-89
2024/02/03 20:31:10;;;;;;;;;;;;;;;7.64;100.00;99105.89;273227;1267;22522;-89
2024/02/03 20:37:12;;;;;;;;;;;;;;;7.53;100.00;99104.36;273169;1259;23230;-90
2024/02/03 20:43:14;;;;;;;;;;;;;;;7.47;100.00;99103.34;273271;1259;22505;-89
2024/02/03 20:49:15;;;;;;;;;;;;;;;7.44;100.00;99094.16;272899;1259;23353;-90
2024/02/03 20:55:17;;;;;;;;;;;;;;;7.43;100.00;99087.29;272647;1269;22552;-90
2024/02/03 21:01:19;;;;;;;;;;;;;;;7.41;100.00;99078.98;272771;1269;23114;-90
2024/02/03 21:07:22;;;;;;;;;;;;;;;7.39;100.00;99080.02;272866;1269;22508;-90
2024/02/03 21:13:23;;;;;;;;;;;;;;;7.39;100.00;99076.77;272906;1259;22467;-90
2024/02/03 21:19:27;;;;;;;;;;;;;;;7.41;100.00;99075.52;273034;1257;22551;-89
2024/02/03 21:25:29;;;;;;;;;;;;;;;7.41;100.00;99070.35;269379;1267;22546;-90
2024/02/03 21:31:31;;;;;;;;;;;;;;;7.40;100.00;99063.11;269754;1272;22584;-91
2024/02/03 21:37:43;;;;;;;;;;;;;;;7.38;100.00;99055.73;269615;1270;22550;-91
2024/02/03 21:43:47;;;;;;;;;;;;;;;7.38;100.00;99057.52;269043;1271;22546;-90
2024/02/03 21:49:51;;;;;;;;;;;;;;;7.37;100.00;99048.33;269174;1272;23745;-92
2024/02/03 21:55:56;;;;;;;;;;;;;;;7.40;100.00;99044.81;269721;1271;23004;-91
2024/02/03 22:01:57;;;;;;;;;;;;;;;7.45;100.00;99043.15;269912;1270;26390;-90
2024/02/03 22:08:00;;;;;;;;;;;;;;;7.46;100.00;99048.21;269581;1270;24208;-89
2024/02/03 22:14:04;;;;;;;;;;;;;;;7.46;100.00;99049.00;269783;1272;23182;-89
2024/02/03 22:20:08;;;;;;;;;;;;;;;7.44;100.00;99041.09;269509;1270;22522;-90
2024/02/03 22:26:11;;;;;;;;;;;;;;;7.45;100.00;99033.80;269761;1272;22526;-90
2024/02/03 22:32:13;;;;;;;;;;;;;;;7.46;100.00;99033.28;269418;1272;22494;-90
2024/02/03 22:38:18;;;;;;;;;;;;;;;7.45;100.00;99033.11;269444;1270;22528;-91
2024/02/03 22:44:20;;;;;;;;;;;;;;;7.46;100.00;99027.91;269472;1271;22597;-91
2024/02/03 22:50:23;;;;;;;;;;;;;;;7.45;100.00;99022.98;269292;1270;22545;-91
2024/02/03 22:56:26;;;;;;;;;;;;;;;7.44;100.00;99017.52;269258;1272;22537;-90
2024/02/03 23:02:29;;;;;;;;;;;;;;;7.40;100.00;99022.48;269272;1271;22534;-92
2024/02/03 23:08:31;;;;;;;;;;;;;;;7.36;100.00;99016.32;269597;1270;22514;-90
2024/02/03 23:14:34;;;;;;;;;;;;;;;7.37;100.00;99008.48;269717;1272;23408;-92
2024/02/03 23:20:37;;;;;;;;;;;;;;;7.37;100.00;98997.14;269344;1272;23239;-91
2024/02/03 23:26:41;;;;;;;;;;;;;;;7.40;100.00;98999.52;269285;1272;22539;-90
2024/02/03 23:32:43;;;;;;;;;;;;;;;7.42;100.00;98995.30;270062;1270;22524;-90
2024/02/03 23:38:46;;;;;;;;;;;;;;;7.44;100.00;98993.63;270024;1272;22603;-90
2024/02/03 23:44:49;;;;;;;;;;;;;;;7.44;100.00;98992.69;270083;1271;23730;-91
2024/02/03 23:50:53;;;;;;;;;;;;;;;7.38;100.00;98995.27;269462;1272;24572;-90
2024/02/03 23:56:55;;;;;;;;;;;;;;;7.26;100.00;98986.97;269769;1263;23054;-90
